createdAt,value
2019-04-29T00:00:12.074Z,11.40
2019-04-29T00:02:44.253Z,11.40
2019-04-29T00:05:15.096Z,11.40
2019-04-29T00:07:45.572Z,11.30
2019-04-29T00:10:19.881Z,11.30
2019-04-29T00:12:50.452Z,11.30
2019-04-29T00:15:40.087Z,11.30
2019-04-29T00:18:16.582Z,11.30
2019-04-29T00:20:49.289Z,11.30
2019-04-29T00:23:19.743Z,11.30
2019-04-29T00:25:51.496Z,11.30
2019-04-29T00:28:22.127Z,11.30
2019-04-29T00:30:52.652Z,11.30
2019-04-29T00:33:23.297Z,11.30
2019-04-29T00:35:53.937Z,11.30
2019-04-29T00:38:43.616Z,11.20
2019-04-29T00:41:33.421Z,11.20
2019-04-29T00:44:06.610Z,11.20
2019-04-29T00:46:37.279Z,11.20
2019-04-29T00:49:07.783Z,11.20
2019-04-29T00:51:39.452Z,11.20
2019-04-29T00:54:18.203Z,11.20
2019-04-29T00:56:48.743Z,11.20
2019-04-29T00:59:19.292Z,11.20
2019-04-29T01:01:49.991Z,11.20
2019-04-29T01:04:20.664Z,11.20
2019-04-29T01:06:51.309Z,11.20
2019-04-29T01:09:22.037Z,11.20
2019-04-29T01:11:52.653Z,11.20
2019-04-29T01:14:23.241Z,11.10
2019-04-29T01:16:53.898Z,11.10
2019-04-29T01:19:24.407Z,11.10
2019-04-29T01:21:54.855Z,11.10
2019-04-29T01:24:25.509Z,11.10
2019-04-29T01:27:15.263Z,11.10
2019-04-29T01:29:45.927Z,11.10
2019-04-29T01:32:16.668Z,11.10
2019-04-29T01:34:51.601Z,11.10
2019-04-29T01:37:34.687Z,11.00
2019-04-29T01:40:15.863Z,11.00
2019-04-29T01:42:46.431Z,11.00
2019-04-29T01:45:16.962Z,11.00
2019-04-29T01:47:47.513Z,11.00
2019-04-29T01:50:18.155Z,11.00
2019-04-29T01:52:48.690Z,11.00
2019-04-29T01:55:19.235Z,11.00
2019-04-29T01:57:49.780Z,11.00
2019-04-29T02:00:20.528Z,11.00
2019-04-29T02:02:51.152Z,11.00
2019-04-29T02:05:21.778Z,11.00
2019-04-29T02:07:52.392Z,11.00
2019-04-29T02:10:28.815Z,11.10
2019-04-29T02:12:59.523Z,11.00
2019-04-29T02:15:30.072Z,11.10
2019-04-29T02:18:00.698Z,11.10
2019-04-29T02:20:31.221Z,11.10
2019-04-29T02:23:15.729Z,11.10
2019-04-29T02:25:46.888Z,11.10
2019-04-29T02:28:17.559Z,11.10
2019-04-29T02:30:49.623Z,11.10
2019-04-29T02:33:20.311Z,11.10
2019-04-29T02:35:50.772Z,11.10
2019-04-29T02:38:35.531Z,11.10
2019-04-29T02:41:25.333Z,11.10
2019-04-29T02:43:57.657Z,11.10
2019-04-29T02:46:28.281Z,11.10
2019-04-29T02:48:59.071Z,11.00
2019-04-29T02:51:48.882Z,11.00
2019-04-29T02:54:19.656Z,11.00
2019-04-29T02:56:59.253Z,11.00
2019-04-29T02:59:33.994Z,10.90
2019-04-29T03:02:13.203Z,10.90
2019-04-29T03:05:02.835Z,10.90
2019-04-29T03:07:33.761Z,10.90
2019-04-29T03:10:04.880Z,10.90
2019-04-29T03:12:35.862Z,10.80
2019-04-29T03:15:06.926Z,10.80
2019-04-29T03:17:38.106Z,10.80
2019-04-29T03:20:18.713Z,10.80
2019-04-29T03:22:49.840Z,10.80
2019-04-29T03:25:20.406Z,10.80
2019-04-29T03:27:50.961Z,10.70
2019-04-29T03:30:21.556Z,10.80
2019-04-29T03:32:52.239Z,10.80
2019-04-29T03:35:23.903Z,10.80
2019-04-29T03:37:54.600Z,10.80
2019-04-29T03:40:25.233Z,10.80
2019-04-29T03:42:56.082Z,10.80
2019-04-29T03:45:26.764Z,10.80
2019-04-29T03:47:58.352Z,10.80
2019-04-29T03:50:28.861Z,10.70
2019-04-29T03:52:59.635Z,10.60
2019-04-29T03:55:40.147Z,10.60
2019-04-29T03:58:02.533Z,10.60
2019-04-29T04:00:33.270Z,10.60
2019-04-29T04:03:18.461Z,10.60
2019-04-29T04:05:59.192Z,10.60
2019-04-29T04:08:38.433Z,10.60
2019-04-29T04:11:09.037Z,10.50
2019-04-29T04:13:39.664Z,10.50
2019-04-29T04:16:13.680Z,10.50
2019-04-29T04:18:44.165Z,10.60
2019-04-29T04:21:14.733Z,10.60
2019-04-29T04:23:47.947Z,10.60
2019-04-29T04:26:18.454Z,10.60
2019-04-29T04:28:50.324Z,10.60
2019-04-29T04:31:20.884Z,10.60
2019-04-29T04:33:51.378Z,10.70
2019-04-29T04:36:21.872Z,10.70
2019-04-29T04:38:52.301Z,10.80
2019-04-29T04:41:22.888Z,10.80
2019-04-29T04:43:53.366Z,10.90
2019-04-29T04:46:23.899Z,11.00
2019-04-29T04:48:56.759Z,11.00
2019-04-29T04:51:27.301Z,11.10
2019-04-29T04:53:57.963Z,11.20
2019-04-29T04:56:29.207Z,11.30
2019-04-29T04:58:59.826Z,11.30
2019-04-29T05:01:30.532Z,11.40
2019-04-29T05:04:01.124Z,11.50
2019-04-29T05:06:31.656Z,11.50
2019-04-29T05:09:02.203Z,11.60
2019-04-29T05:11:32.794Z,11.70
2019-04-29T05:14:03.492Z,11.80
2019-04-29T05:16:34.080Z,11.80
2019-04-29T05:19:04.727Z,11.90
2019-04-29T05:21:35.243Z,12.00
2019-04-29T05:24:05.814Z,12.10
2019-04-29T05:26:36.303Z,12.20
2019-04-29T05:29:08.749Z,12.20
2019-04-29T05:31:39.271Z,12.30
2019-04-29T05:34:10.110Z,12.40
2019-04-29T05:36:59.727Z,12.50
2019-04-29T05:39:33.541Z,12.60
2019-04-29T05:42:07.713Z,12.60
2019-04-29T05:44:45.141Z,12.70
2019-04-29T05:47:34.829Z,12.80
2019-04-29T05:50:25.190Z,12.90
2019-04-29T05:53:16.365Z,13.10
2019-04-29T05:55:46.850Z,13.20
2019-04-29T05:58:17.397Z,13.30
2019-04-29T06:00:58.990Z,13.40
2019-04-29T06:03:29.656Z,13.50
2019-04-29T06:06:01.869Z,13.60
2019-04-29T06:08:34.559Z,13.80
2019-04-29T06:11:04.958Z,13.90
2019-04-29T06:13:35.575Z,14.10
2019-04-29T06:16:06.389Z,14.20
2019-04-29T06:18:36.926Z,14.30
2019-04-29T06:21:09.358Z,14.30
2019-04-29T06:23:41.358Z,14.40
2019-04-29T06:26:12.007Z,14.50
2019-04-29T06:28:42.761Z,14.60
2019-04-29T06:31:14.266Z,14.60
2019-04-29T06:33:44.940Z,14.70
2019-04-29T06:36:16.717Z,14.80
2019-04-29T06:38:47.387Z,14.70
2019-04-29T06:41:20.190Z,14.60
2019-04-29T06:43:54.163Z,14.50
2019-04-29T06:46:24.049Z,14.40
2019-04-29T06:48:54.582Z,14.50
2019-04-29T06:51:25.382Z,14.50
2019-04-29T06:53:55.992Z,14.50
2019-04-29T06:56:26.479Z,14.70
2019-04-29T06:58:57.197Z,14.90
2019-04-29T07:01:27.987Z,15.00
2019-04-29T07:03:59.894Z,15.10
2019-04-29T07:06:31.023Z,15.20
2019-04-29T07:09:01.927Z,15.40
2019-04-29T07:11:36.618Z,15.40
2019-04-29T07:14:08.035Z,15.40
2019-04-29T07:16:38.644Z,15.50
2019-04-29T07:19:09.112Z,15.60
2019-04-29T07:21:41.845Z,15.90
2019-04-29T07:24:11.702Z,16.00
2019-04-29T07:26:42.219Z,16.00
2019-04-29T07:29:12.704Z,16.10
2019-04-29T07:31:43.453Z,16.30
2019-04-29T07:34:14.016Z,16.50
2019-04-29T07:36:44.680Z,16.70
2019-04-29T07:39:15.301Z,16.90
2019-04-29T07:41:49.505Z,17.00
2019-04-29T07:44:19.951Z,17.20
2019-04-29T07:46:59.125Z,17.00
2019-04-29T07:49:25.036Z,16.90
2019-04-29T07:51:55.966Z,17.00
2019-04-29T07:54:26.667Z,17.00
2019-04-29T07:56:58.296Z,17.10
2019-04-29T07:59:28.720Z,17.30
2019-04-29T08:01:59.803Z,17.40
2019-04-29T08:04:31.719Z,17.50
2019-04-29T08:07:02.556Z,17.50
2019-04-29T08:09:33.355Z,17.50
2019-04-29T08:12:04.572Z,17.60
2019-04-29T08:14:35.382Z,17.70
2019-04-29T08:17:08.286Z,17.80
2019-04-29T08:19:38.924Z,17.80
2019-04-29T08:22:09.643Z,17.70
2019-04-29T08:24:40.277Z,17.70
2019-04-29T08:27:10.815Z,17.80
2019-04-29T08:29:41.306Z,17.90
2019-04-29T08:32:11.742Z,18.00
2019-04-29T08:34:42.565Z,18.10
2019-04-29T08:37:12.998Z,18.10
2019-04-29T08:39:43.519Z,18.30
2019-04-29T08:42:20.199Z,18.30
2019-04-29T08:45:09.845Z,18.30
2019-04-29T08:47:43.158Z,18.30
2019-04-29T08:50:15.184Z,18.50
2019-04-29T08:52:46.048Z,18.50
2019-04-29T08:55:19.405Z,18.60
2019-04-29T08:57:50.349Z,18.60
2019-04-29T09:00:21.168Z,18.70
2019-04-29T09:02:52.001Z,18.70
2019-04-29T09:05:22.733Z,18.70
2019-04-29T09:07:57.361Z,18.70
2019-04-29T09:10:25.809Z,18.80
2019-04-29T09:12:56.430Z,18.70
2019-04-29T09:15:27.087Z,18.80
2019-04-29T09:17:58.064Z,18.90
2019-04-29T09:20:28.819Z,18.90
2019-04-29T09:23:03.183Z,19.10
2019-04-29T09:26:02.493Z,19.40
2019-04-29T09:28:28.111Z,19.40
2019-04-29T09:30:58.501Z,19.40
2019-04-29T09:33:29.089Z,19.30
2019-04-29T09:35:59.716Z,19.40
2019-04-29T09:38:32.503Z,19.50
2019-04-29T09:41:21.641Z,19.50
2019-04-29T09:44:04.016Z,19.60
2019-04-29T09:46:35.910Z,19.70
2019-04-29T09:49:06.465Z,19.90
2019-04-29T09:51:38.259Z,20.20
2019-04-29T09:54:09.557Z,20.40
2019-04-29T09:56:41.462Z,20.50
2019-04-29T09:59:31.177Z,20.40
2019-04-29T10:02:20.797Z,20.40
2019-04-29T10:05:05.865Z,20.40
2019-04-29T10:07:36.755Z,20.30
2019-04-29T10:10:07.926Z,20.30
2019-04-29T10:12:38.669Z,20.30
2019-04-29T10:15:11.416Z,20.50
2019-04-29T10:17:55.842Z,20.70
2019-04-29T10:20:44.183Z,21.20
2019-04-29T10:23:14.994Z,21.30
2019-04-29T10:25:45.692Z,21.70
2019-04-29T10:28:16.610Z,21.70
2019-04-29T10:30:47.559Z,21.50
2019-04-29T10:33:19.451Z,21.40
2019-04-29T10:35:51.068Z,21.70
2019-04-29T10:38:21.644Z,21.90
2019-04-29T10:41:13.887Z,22.00
2019-04-29T10:44:03.652Z,21.70
2019-04-29T10:46:53.347Z,21.50
2019-04-29T10:49:29.349Z,21.90
2019-04-29T10:52:02.941Z,22.10
2019-04-29T10:54:32.735Z,22.30
2019-04-29T10:57:03.450Z,22.00
2019-04-29T10:59:36.455Z,22.10
2019-04-29T11:02:31.945Z,22.10
2019-04-29T11:05:23.984Z,22.20
2019-04-29T11:08:02.070Z,22.20
2019-04-29T11:10:30.962Z,22.30
2019-04-29T11:13:01.640Z,22.10
2019-04-29T11:15:35.329Z,22.30
2019-04-29T11:18:06.665Z,22.40
2019-04-29T11:20:37.557Z,22.60
2019-04-29T11:23:18.116Z,23.00
2019-04-29T11:26:09.360Z,23.40
2019-04-29T11:28:40.085Z,23.20
2019-04-29T11:31:19.077Z,23.10
2019-04-29T11:34:00.223Z,23.50
2019-04-29T11:36:30.921Z,24.20
2019-04-29T11:39:01.768Z,24.80
2019-04-29T11:41:34.131Z,25.40
2019-04-29T11:44:05.080Z,25.90
2019-04-29T11:46:35.999Z,26.20
2019-04-29T11:49:10.439Z,26.30
2019-04-29T11:52:07.642Z,26.30
2019-04-29T11:54:18.160Z,26.40
2019-04-29T11:56:48.213Z,26.00
2019-04-29T11:59:37.957Z,26.20
2019-04-29T12:02:24.258Z,26.50
2019-04-29T12:04:59.533Z,26.70
2019-04-29T12:07:32.559Z,27.40
2019-04-29T12:10:06.461Z,27.90
2019-04-29T12:12:35.173Z,27.80
2019-04-29T12:15:21.607Z,27.20
2019-04-29T12:18:11.364Z,27.20
2019-04-29T12:20:53.611Z,26.60
2019-04-29T12:23:24.244Z,27.00
2019-04-29T12:25:58.614Z,27.10
2019-04-29T12:28:27.306Z,27.40
2019-04-29T12:31:00.772Z,27.90
2019-04-29T12:33:40.798Z,28.60
2019-04-29T12:36:12.590Z,29.40
2019-04-29T12:39:03.354Z,29.30
2019-04-29T12:41:54.647Z,28.60
2019-04-29T12:44:45.580Z,28.10
2019-04-29T12:47:26.806Z,27.40
2019-04-29T12:49:55.012Z,26.10
2019-04-29T12:52:25.889Z,26.20
2019-04-29T12:54:56.538Z,26.10
2019-04-29T12:57:27.139Z,26.20
2019-04-29T12:59:57.766Z,26.70
2019-04-29T13:02:47.418Z,26.70
2019-04-29T13:05:36.274Z,26.60
2019-04-29T13:08:35.943Z,26.60
2019-04-29T13:11:07.388Z,27.00
2019-04-29T13:13:37.970Z,27.40
2019-04-29T13:16:29.768Z,27.50
2019-04-29T13:19:20.527Z,27.40
2019-04-29T13:21:51.627Z,27.80
2019-04-29T13:24:24.638Z,28.40
2019-04-29T13:26:54.691Z,28.80
2019-04-29T13:29:27.758Z,28.90
2019-04-29T13:32:01.548Z,28.50
2019-04-29T13:34:35.068Z,27.40
2019-04-29T13:37:07.825Z,26.50
2019-04-29T13:39:40.398Z,26.30
2019-04-29T13:42:15.310Z,26.10
2019-04-29T13:45:04.708Z,25.60
2019-04-29T13:47:33.660Z,25.10
2019-04-29T13:50:38.699Z,25.40
2019-04-29T13:52:56.069Z,25.60
2019-04-29T13:55:47.210Z,25.50
2019-04-29T13:57:59.237Z,25.50
2019-04-29T14:00:37.035Z,25.20
2019-04-29T14:03:17.362Z,24.90
2019-04-29T14:05:48.392Z,24.60
2019-04-29T14:08:19.085Z,23.70
2019-04-29T14:10:51.099Z,23.60
2019-04-29T14:13:22.056Z,23.40
2019-04-29T14:15:52.759Z,23.30
2019-04-29T14:18:25.907Z,23.30
2019-04-29T14:20:56.504Z,23.40
2019-04-29T14:23:27.117Z,23.60
2019-04-29T14:25:57.697Z,23.90
2019-04-29T14:28:28.414Z,23.80
2019-04-29T14:31:00.059Z,23.70
2019-04-29T14:33:36.209Z,23.90
2019-04-29T14:36:08.780Z,23.60
2019-04-29T14:38:40.499Z,23.40
2019-04-29T14:41:14.423Z,23.20
2019-04-29T14:43:57.480Z,23.20
2019-04-29T14:46:43.961Z,23.50
2019-04-29T14:49:22.084Z,23.40
2019-04-29T14:51:52.860Z,23.60
2019-04-29T14:54:23.375Z,23.10
2019-04-29T14:56:54.109Z,22.70
2019-04-29T14:59:24.922Z,22.50
2019-04-29T15:02:03.239Z,22.40
2019-04-29T15:04:37.123Z,22.30
2019-04-29T15:07:07.733Z,22.10
2019-04-29T15:09:55.797Z,22.10
2019-04-29T15:12:52.154Z,22.40
2019-04-29T15:15:39.008Z,22.90
2019-04-29T15:18:18.507Z,23.40
2019-04-29T15:20:55.919Z,23.40
2019-04-29T15:23:28.935Z,23.80
2019-04-29T15:25:57.530Z,23.10
2019-04-29T15:28:27.998Z,22.50
2019-04-29T15:30:58.661Z,21.90
2019-04-29T15:33:30.584Z,22.00
2019-04-29T15:36:01.802Z,21.90
2019-04-29T15:38:32.482Z,21.90
2019-04-29T15:41:05.375Z,21.90
2019-04-29T15:43:47.352Z,22.00
2019-04-29T15:46:11.440Z,22.10
2019-04-29T15:48:40.283Z,21.90
2019-04-29T15:51:13.895Z,21.90
2019-04-29T15:53:43.450Z,21.80
2019-04-29T15:56:28.420Z,21.70
2019-04-29T15:58:46.425Z,21.50
2019-04-29T16:01:18.240Z,21.20
2019-04-29T16:03:54.595Z,21.10
2019-04-29T16:06:41.389Z,21.00
2019-04-29T16:09:23.662Z,21.30
2019-04-29T16:12:05.035Z,21.90
2019-04-29T16:14:33.083Z,22.50
2019-04-29T16:17:03.748Z,22.50
2019-04-29T16:19:34.521Z,22.20
2019-04-29T16:22:05.159Z,21.40
2019-04-29T16:24:38.204Z,21.00
2019-04-29T16:27:10.355Z,20.60
2019-04-29T16:29:40.697Z,20.40
2019-04-29T16:32:13.525Z,20.20
2019-04-29T16:34:46.830Z,20.00
2019-04-29T16:37:19.395Z,19.80
2019-04-29T16:39:52.917Z,19.60
2019-04-29T16:42:26.935Z,19.50
2019-04-29T16:44:57.623Z,19.50
2019-04-29T16:47:29.178Z,19.40
2019-04-29T16:50:04.849Z,19.50
2019-04-29T16:52:33.673Z,19.40
2019-04-29T16:55:06.055Z,19.30
2019-04-29T16:57:37.033Z,19.30
2019-04-29T17:00:13.930Z,19.20
2019-04-29T17:02:41.315Z,19.20
2019-04-29T17:05:14.759Z,19.10
2019-04-29T17:07:45.690Z,19.00
2019-04-29T17:10:23.385Z,18.90
2019-04-29T17:12:54.350Z,18.80
2019-04-29T17:15:26.384Z,18.70
2019-04-29T17:17:57.195Z,18.60
2019-04-29T17:20:27.954Z,18.50
2019-04-29T17:23:00.449Z,18.40
2019-04-29T17:25:31.445Z,18.20
2019-04-29T17:28:12.017Z,18.00
2019-04-29T17:31:02.207Z,17.90
2019-04-29T17:33:49.506Z,17.80
2019-04-29T17:36:22.932Z,17.60
2019-04-29T17:38:48.461Z,17.50
2019-04-29T17:41:19.318Z,17.30
2019-04-29T17:44:09.058Z,17.20
2019-04-29T17:46:46.481Z,17.00
2019-04-29T17:49:29.352Z,16.80
2019-04-29T17:52:02.933Z,16.60
2019-04-29T17:54:35.900Z,16.30
2019-04-29T17:57:30.752Z,16.10
2019-04-29T18:00:17.180Z,15.90
2019-04-29T18:03:07.423Z,15.70
2019-04-29T18:05:57.795Z,15.50
2019-04-29T18:08:48.826Z,15.30
2019-04-29T18:11:19.831Z,15.20
2019-04-29T18:13:56.820Z,15.00
2019-04-29T18:16:32.164Z,14.80
2019-04-29T18:19:10.400Z,14.60
2019-04-29T18:22:08.885Z,14.50
2019-04-29T18:24:51.865Z,14.30
2019-04-29T18:27:25.325Z,14.20
2019-04-29T18:29:56.380Z,14.10
2019-04-29T18:32:34.996Z,14.10
2019-04-29T18:34:59.750Z,14.10
2019-04-29T18:37:36.944Z,14.20
2019-04-29T18:40:03.624Z,14.20
2019-04-29T18:42:38.378Z,14.20
2019-04-29T18:45:09.027Z,14.20
2019-04-29T18:47:41.144Z,14.20
2019-04-29T18:50:15.853Z,14.30
2019-04-29T18:52:47.398Z,14.40
2019-04-29T18:55:19.124Z,14.40
2019-04-29T18:57:50.511Z,14.40
2019-04-29T19:00:25.504Z,14.30
2019-04-29T19:03:00.979Z,14.30
2019-04-29T19:05:37.417Z,14.30
2019-04-29T19:08:14.357Z,14.30
2019-04-29T19:10:42.297Z,14.30
2019-04-29T19:13:14.910Z,14.20
2019-04-29T19:15:48.491Z,14.20
2019-04-29T19:18:21.077Z,14.10
2019-04-29T19:20:52.889Z,14.00
2019-04-29T19:23:29.381Z,13.90
2019-04-29T19:25:57.151Z,13.80
2019-04-29T19:28:31.033Z,13.70
2019-04-29T19:31:03.078Z,13.50
2019-04-29T19:33:38.848Z,13.40
2019-04-29T19:36:09.145Z,13.30
2019-04-29T19:38:43.266Z,13.10
2019-04-29T19:41:16.378Z,12.90
2019-04-29T19:43:48.261Z,12.80
2019-04-29T19:46:24.322Z,12.70
2019-04-29T19:48:51.278Z,12.60
2019-04-29T19:51:23.113Z,12.50
2019-04-29T19:53:55.248Z,12.50
2019-04-29T19:56:27.007Z,12.40
2019-04-29T19:59:10.260Z,12.40
2019-04-29T20:01:32.714Z,12.40
2019-04-29T20:04:22.394Z,12.40
2019-04-29T20:06:50.513Z,12.30
2019-04-29T20:09:23.726Z,12.30
2019-04-29T20:11:55.857Z,12.20
2019-04-29T20:14:31.554Z,12.20
2019-04-29T20:17:19.540Z,12.00
2019-04-29T20:20:09.962Z,12.00
2019-04-29T20:22:52.443Z,11.90
2019-04-29T20:25:30.868Z,11.70
2019-04-29T20:28:05.537Z,11.70
2019-04-29T20:30:28.279Z,11.70
2019-04-29T20:33:01.166Z,11.60
2019-04-29T20:35:32.984Z,11.60
2019-04-29T20:38:05.507Z,11.50
2019-04-29T20:40:41.517Z,11.40
2019-04-29T20:43:08.704Z,11.30
2019-04-29T20:45:39.767Z,11.10
2019-04-29T20:48:11.110Z,11.10
2019-04-29T20:50:46.112Z,11.00
2019-04-29T20:53:30.772Z,10.90
2019-04-29T20:56:10.231Z,10.80
2019-04-29T20:58:33.298Z,10.70
2019-04-29T21:01:10.915Z,10.60
2019-04-29T21:03:41.053Z,10.60
2019-04-29T21:06:10.717Z,10.50
2019-04-29T21:08:45.021Z,10.50
2019-04-29T21:11:21.326Z,10.40
2019-04-29T21:14:00.557Z,10.40
2019-04-29T21:16:34.884Z,10.40
2019-04-29T21:19:09.094Z,10.40
2019-04-29T21:21:41.843Z,10.40
2019-04-29T21:24:18.232Z,10.30
2019-04-29T21:26:45.949Z,10.40
2019-04-29T21:29:19.468Z,10.40
2019-04-29T21:31:50.612Z,10.40
2019-04-29T21:34:25.480Z,10.40
2019-04-29T21:37:06.591Z,10.50
2019-04-29T21:39:55.063Z,10.60
2019-04-29T21:42:35.740Z,10.50
2019-04-29T21:45:08.786Z,10.50
2019-04-29T21:47:45.676Z,10.30
2019-04-29T21:50:12.038Z,10.20
2019-04-29T21:52:42.699Z,10.20
2019-04-29T21:55:13.519Z,10.10
2019-04-29T21:57:44.267Z,10.10
2019-04-29T22:00:23.867Z,10.00
2019-04-29T22:02:50.896Z,10.00
2019-04-29T22:05:22.726Z,10.00
2019-04-29T22:07:53.288Z,10.00
2019-04-29T22:10:28.860Z,10.00
2019-04-29T22:13:01.940Z,10.00
2019-04-29T22:15:32.848Z,10.10
2019-04-29T22:18:01.983Z,10.10
2019-04-29T22:20:37.591Z,10.10
2019-04-29T22:23:12.875Z,10.10
2019-04-29T22:25:41.133Z,10.20
2019-04-29T22:28:14.954Z,10.20
2019-04-29T22:30:42.997Z,10.20
2019-04-29T22:33:15.319Z,10.30
2019-04-29T22:35:45.837Z,10.40
2019-04-29T22:38:18.820Z,10.50
2019-04-29T22:40:50.779Z,10.50
2019-04-29T22:43:36.019Z,10.40
2019-04-29T22:46:09.525Z,10.40
2019-04-29T22:48:40.538Z,10.50
2019-04-29T22:51:15.162Z,10.50
2019-04-29T22:53:48.100Z,10.40
2019-04-29T22:56:16.890Z,10.40
2019-04-29T22:58:47.541Z,10.50
2019-04-29T23:01:18.270Z,10.40
2019-04-29T23:03:49.327Z,10.30
2019-04-29T23:06:19.886Z,10.10
2019-04-29T23:08:50.698Z,10.00
2019-04-29T23:11:21.225Z,9.80
2019-04-29T23:13:51.752Z,9.70
2019-04-29T23:16:22.239Z,9.70
2019-04-29T23:18:52.844Z,9.70
2019-04-29T23:21:43.407Z,9.70
2019-04-29T23:24:32.278Z,9.60
2019-04-29T23:27:03.001Z,9.50
2019-04-29T23:29:37.077Z,9.60
2019-04-29T23:32:08.289Z,9.80
2019-04-29T23:34:38.980Z,9.90
2019-04-29T23:37:09.467Z,10.00
2019-04-29T23:39:40.037Z,10.10
2019-04-29T23:42:12.120Z,10.10
2019-04-29T23:44:44.212Z,10.10
2019-04-29T23:47:15.879Z,10.20
2019-04-29T23:49:47.135Z,10.20
2019-04-29T23:52:18.038Z,10.20
2019-04-29T23:54:48.820Z,10.20
2019-04-29T23:57:28.176Z,10.20
